Roparudden, Sweden

8:03 AM CET on March 23, 2017 (GMT +0100)
Adolfstrom, Arjeplogsfjallen,Sweden | | Change Station

Elev 1590 ft 66.28 °N, 16.66 °E | Updated 1 second ago

Mostly Cloudy
Mostly Cloudy
27.0 °F
Feels Like 15 °F
N
15.0
Wind Variable Wind from West
Gusts 15.0 mph

Today
High -- | Low -- °F
--% Chance of Precip.
Yesterday
High -- | Low -- °F
Precip. -- in
Pressure 29.62 in
Visibility 6.2 miles
Clouds Few 3500 ft
Windchill 15 °F
Dew Point 18 °F
Humidity 69%
Rainfall 0.00 in
Snow Depth Not available.
5:42 AM 6:21 PM
Waning Crescent, 25% visible
METAR ESUT 230650Z AUTO 30011KT 270V330 9999 SG FEW035/// M04/M10 Q1003
Pressure 29.62 in
Visibility 6.2 miles
Clouds Few 3500 ft
Windchill 15 °F
Dew Point 18 °F
Humidity 69%
Rainfall 0.00 in
Snow Depth Not available.
5:42 AM 6:21 PM
Waning Crescent, 25% visible
METAR ESUT 230650Z AUTO 30011KT 270V330 9999 SG FEW035/// M04/M10 Q1003

Get Severe Weather Alerts

Thanks for signing up!

Be on the lookout for a verification email in your inbox.

You'll start receiving the daily forecast at 8 AM.

×

10-Day Weather Forecast

×

Almanac

Astronomy

Mar. 23, 2017 Rise Set
Actual Time
Civil Twilight
Nautical Twilight
Astronomical Twilight
Moon
Length of Visible Light
Length of Day
Tomorrow will be .
, % of the Moon is Illuminated

Today's Extremes

Country Highs Country Lows

Community

WunderPhotos

Upload Photos

1,962,540 photos uploaded!

WunderBlog® & News

Nearby

Air Quality

  Air Quality AQ Index Pollutant
Not available.

Snow Depth

Station Depth Elevation

Earthquake Activity

City Distance Mag. Time & Date
Minimum magnitude displayed is 2.5.

Earthquake Activity

City Distance Mag. Time & Date
Minimum magnitude displayed is 2.5.

Coastal Water Temperatures

Place Temperature

Stations

Nearby Weather Stations

Station Location Temp. Windchill Dew Point Humidity Wind Precip. Elev Updated Type